sensor_id;sensor_type;location;lat;lon;timestamp;pressure;altitude;pressure_sealevel;temperature;humidity
60345;BME280;46188;52.324;8.032;2022-08-20T00:01:23;100286.66;;;21.49;80.19
60345;BME280;46188;52.324;8.032;2022-08-20T00:03:49;100281.34;;;21.47;80.30
60345;BME280;46188;52.324;8.032;2022-08-20T00:06:17;100284.91;;;21.46;80.86
60345;BME280;46188;52.324;8.032;2022-08-20T00:08:44;100280.44;;;21.47;80.71
60345;BME280;46188;52.324;8.032;2022-08-20T00:11:14;100278.66;;;21.47;80.49
60345;BME280;46188;52.324;8.032;2022-08-20T00:13:45;100272.41;;;21.47;80.43
60345;BME280;46188;52.324;8.032;2022-08-20T00:16:11;100273.44;;;21.43;81.03
60345;BME280;46188;52.324;8.032;2022-08-20T00:18:41;100271.63;;;21.43;80.83
60345;BME280;46188;52.324;8.032;2022-08-20T00:21:09;100270.81;;;21.41;80.82
60345;BME280;46188;52.324;8.032;2022-08-20T00:23:36;100277.13;;;21.40;81.27
60345;BME280;46188;52.324;8.032;2022-08-20T00:26:03;100284.28;;;21.39;81.54
60345;BME280;46188;52.324;8.032;2022-08-20T00:28:29;100276.34;;;21.36;81.76
60345;BME280;46188;52.324;8.032;2022-08-20T00:30:54;100287.06;;;21.36;81.67
60345;BME280;46188;52.324;8.032;2022-08-20T00:33:21;100288.81;;;21.37;81.49
60345;BME280;46188;52.324;8.032;2022-08-20T00:35:50;100290.59;;;21.38;81.52
60345;BME280;46188;52.324;8.032;2022-08-20T00:38:16;100299.56;;;21.37;81.88
60345;BME280;46188;52.324;8.032;2022-08-20T00:40:47;100296.06;;;21.35;81.88
60345;BME280;46188;52.324;8.032;2022-08-20T00:43:50;100294.25;;;21.36;82.09
60345;BME280;46188;52.324;8.032;2022-08-20T00:46:24;100299.66;;;21.34;81.91
60345;BME280;46188;52.324;8.032;2022-08-20T00:48:54;100296.16;;;21.32;82.04
60345;BME280;46188;52.324;8.032;2022-08-20T00:51:25;100295.25;;;21.33;81.56
60345;BME280;46188;52.324;8.032;2022-08-20T00:53:54;100293.44;;;21.34;81.30
60345;BME280;46188;52.324;8.032;2022-08-20T00:56:21;100295.25;;;21.33;81.21
60345;BME280;46188;52.324;8.032;2022-08-20T00:58:47;100292.56;;;21.33;81.17
60345;BME280;46188;52.324;8.032;2022-08-20T01:01:15;100302.44;;;21.31;81.49
60345;BME280;46188;52.324;8.032;2022-08-20T01:03:41;100309.56;;;21.32;81.48
60345;BME280;46188;52.324;8.032;2022-08-20T01:06:07;100312.41;;;21.28;82.09
60345;BME280;46188;52.324;8.032;2022-08-20T01:08:37;100315.16;;;21.26;82.40
60345;BME280;46188;52.324;8.032;2022-08-20T01:11:03;100316.91;;;21.27;82.50
60345;BME280;46188;52.324;8.032;2022-08-20T01:13:49;100317.06;;;21.23;82.93
60345;BME280;46188;52.324;8.032;2022-08-20T01:16:20;100321.56;;;21.22;83.17
60345;BME280;46188;52.324;8.032;2022-08-20T01:18:48;100328.84;;;21.18;83.77
60345;BME280;46188;52.324;8.032;2022-08-20T01:21:16;100328.03;;;21.15;83.92
60345;BME280;46188;52.324;8.032;2022-08-20T01:26:33;100326.13;;;20.93;90.38
60345;BME280;46188;52.324;8.032;2022-08-20T01:29:05;100323.75;;;20.84;92.11
60345;BME280;46188;52.324;8.032;2022-08-20T01:31:35;100313.06;;;20.84;91.37
60345;BME280;46188;52.324;8.032;2022-08-20T01:34:03;100306.03;;;20.80;92.85
60345;BME280;46188;52.324;8.032;2022-08-20T01:36:47;100307.03;;;20.77;94.12
60345;BME280;46188;52.324;8.032;2022-08-20T01:39:14;100303.34;;;20.80;95.35
60345;BME280;46188;52.324;8.032;2022-08-20T01:44:16;100296.41;;;20.74;94.43
60345;BME280;46188;52.324;8.032;2022-08-20T01:46:43;100303.56;;;20.74;93.16
60345;BME280;46188;52.324;8.032;2022-08-20T01:51:40;100304.25;;;20.80;92.84
60345;BME280;46188;52.324;8.032;2022-08-20T01:54:06;100305.06;;;20.82;93.37
60345;BME280;46188;52.324;8.032;2022-08-20T01:56:32;100295.25;;;20.81;93.74
60345;BME280;46188;52.324;8.032;2022-08-20T01:59:01;100298.03;;;20.78;95.07
60345;BME280;46188;52.324;8.032;2022-08-20T02:01:31;100302.47;;;20.79;94.86
60345;BME280;46188;52.324;8.032;2022-08-20T02:04:00;100309.66;;;20.79;94.45
60345;BME280;46188;52.324;8.032;2022-08-20T02:06:28;100310.63;;;20.76;95.87
60345;BME280;46188;52.324;8.032;2022-08-20T02:08:56;100310.72;;;20.73;95.56
60345;BME280;46188;52.324;8.032;2022-08-20T02:11:23;100317.94;;;20.71;95.67
60345;BME280;46188;52.324;8.032;2022-08-20T02:13:51;100313.50;;;20.70;96.07
60345;BME280;46188;52.324;8.032;2022-08-20T02:16:22;100315.50;;;20.63;97.77
60345;BME280;46188;52.324;8.032;2022-08-20T02:18:51;100305.69;;;20.64;96.97
60345;BME280;46188;52.324;8.032;2022-08-20T02:21:20;100314.75;;;20.58;98.17
60345;BME280;46188;52.324;8.032;2022-08-20T02:23:47;100319.19;;;20.59;97.32
60345;BME280;46188;52.324;8.032;2022-08-20T02:26:12;100319.19;;;20.59;96.96
60345;BME280;46188;52.324;8.032;2022-08-20T02:28:38;100328.97;;;20.60;96.79
60345;BME280;46188;52.324;8.032;2022-08-20T02:31:04;100333.50;;;20.58;97.22
60345;BME280;46188;52.324;8.032;2022-08-20T02:33:33;100321.88;;;20.59;96.94
60345;BME280;46188;52.324;8.032;2022-08-20T02:35:59;100327.28;;;20.58;97.87
60345;BME280;46188;52.324;8.032;2022-08-20T02:38:25;100321.16;;;20.54;98.67
60345;BME280;46188;52.324;8.032;2022-08-20T02:40:51;100330.06;;;20.55;98.48
60345;BME280;46188;52.324;8.032;2022-08-20T02:43:16;100331.75;;;20.57;97.89
60345;BME280;46188;52.324;8.032;2022-08-20T02:45:44;100330.88;;;20.57;98.08
60345;BME280;46188;52.324;8.032;2022-08-20T02:48:15;100334.53;;;20.54;98.09
60345;BME280;46188;52.324;8.032;2022-08-20T02:50:53;100341.75;;;20.52;98.67
60345;BME280;46188;52.324;8.032;2022-08-20T02:53:19;100335.53;;;20.50;99.14
60345;BME280;46188;52.324;8.032;2022-08-20T02:55:45;100339.16;;;20.49;98.99
60345;BME280;46188;52.324;8.032;2022-08-20T02:58:11;100336.44;;;20.51;98.66
60345;BME280;46188;52.324;8.032;2022-08-20T03:00:38;100337.34;;;20.50;98.60
60345;BME280;46188;52.324;8.032;2022-08-20T03:03:05;100336.50;;;20.49;98.17
60345;BME280;46188;52.324;8.032;2022-08-20T03:05:32;100341.94;;;20.46;98.61
60345;BME280;46188;52.324;8.032;2022-08-20T03:07:58;100347.34;;;20.44;98.74
60345;BME280;46188;52.324;8.032;2022-08-20T03:10:26;100345.56;;;20.43;99.00
60345;BME280;46188;52.324;8.032;2022-08-20T03:12:52;100341.13;;;20.44;98.90
60345;BME280;46188;52.324;8.032;2022-08-20T03:15:18;100334.81;;;20.45;99.22
60345;BME280;46188;52.324;8.032;2022-08-20T03:17:45;100332.19;;;20.43;99.20
60345;BME280;46188;52.324;8.032;2022-08-20T03:20:12;100337.59;;;20.42;99.61
60345;BME280;46188;52.324;8.032;2022-08-20T03:22:37;100335.75;;;20.44;99.61
60345;BME280;46188;52.324;8.032;2022-08-20T03:25:04;100338.44;;;20.44;99.40
60345;BME280;46188;52.324;8.032;2022-08-20T03:27:29;100346.63;;;20.39;100.00
60345;BME280;46188;52.324;8.032;2022-08-20T03:29:55;100351.16;;;20.37;99.85
60345;BME280;46188;52.324;8.032;2022-08-20T03:32:20;100351.25;;;20.34;100.00
60345;BME280;46188;52.324;8.032;2022-08-20T03:34:47;100357.66;;;20.28;100.00
60345;BME280;46188;52.324;8.032;2022-08-20T03:37:12;100356.00;;;20.24;100.00
60345;BME280;46188;52.324;8.032;2022-08-20T03:39:38;100345.34;;;20.23;100.00
60345;BME280;46188;52.324;8.032;2022-08-20T03:42:04;100348.97;;;20.20;100.00
60345;BME280;46188;52.324;8.032;2022-08-20T03:44:29;100340.03;;;20.21;100.00
60345;BME280;46188;52.324;8.032;2022-08-20T03:46:55;100336.81;;;20.10;100.00
60345;BME280;46188;52.324;8.032;2022-08-20T03:49:20;100329.59;;;20.12;100.00
60345;BME280;46188;52.324;8.032;2022-08-20T03:51:49;100337.50;;;20.17;100.00
60345;BME280;46188;52.324;8.032;2022-08-20T03:54:15;100335.69;;;20.17;100.00
60345;BME280;46188;52.324;8.032;2022-08-20T03:56:40;100334.69;;;20.21;100.00
60345;BME280;46188;52.324;8.032;2022-08-20T03:59:06;100334.59;;;20.24;100.00
60345;BME280;46188;52.324;8.032;2022-08-20T04:01:32;100337.22;;;20.26;100.00
60345;BME280;46188;52.324;8.032;2022-08-20T04:03:58;100334.44;;;20.29;99.66
60345;BME280;46188;52.324;8.032;2022-08-20T04:06:24;100336.22;;;20.28;98.89
60345;BME280;46188;52.324;8.032;2022-08-20T04:08:50;100338.88;;;20.30;99.22
60345;BME280;46188;52.324;8.032;2022-08-20T04:11:17;100345.16;;;20.29;99.80
60345;BME280;46188;52.324;8.032;2022-08-20T04:13:43;100338.09;;;20.26;100.00
60345;BME280;46188;52.324;8.032;2022-08-20T04:16:08;100334.59;;;20.24;100.00
60345;BME280;46188;52.324;8.032;2022-08-20T04:18:34;100340.84;;;20.23;100.00
60345;BME280;46188;52.324;8.032;2022-08-20T04:21:02;100335.50;;;20.23;100.00
60345;BME280;46188;52.324;8.032;2022-08-20T04:23:28;100334.72;;;20.20;100.00
60345;BME280;46188;52.324;8.032;2022-08-20T04:25:55;100339.22;;;20.19;100.00
60345;BME280;46188;52.324;8.032;2022-08-20T04:28:24;100341.88;;;20.19;100.00
60345;BME280;46188;52.324;8.032;2022-08-20T04:30:57;100341.88;;;20.19;100.00
60345;BME280;46188;52.324;8.032;2022-08-20T04:33:24;100342.75;;;20.20;100.00
60345;BME280;46188;52.324;8.032;2022-08-20T04:35:51;100343.63;;;20.20;100.00
60345;BME280;46188;52.324;8.032;2022-08-20T04:38:19;100351.66;;;20.20;100.00
60345;BME280;46188;52.324;8.032;2022-08-20T04:40:45;100347.34;;;20.16;100.00
60345;BME280;46188;52.324;8.032;2022-08-20T04:43:31;100355.31;;;20.18;100.00
60345;BME280;46188;52.324;8.032;2022-08-20T04:46:00;100358.00;;;20.18;100.00
60345;BME280;46188;52.324;8.032;2022-08-20T04:48:26;100371.50;;;20.13;100.00
60345;BME280;46188;52.324;8.032;2022-08-20T04:50:54;100366.16;;;20.13;100.00
60345;BME280;46188;52.324;8.032;2022-08-20T04:53:22;100368.78;;;20.15;100.00
60345;BME280;46188;52.324;8.032;2022-08-20T04:55:49;100366.16;;;20.13;100.00
60345;BME280;46188;52.324;8.032;2022-08-20T04:58:20;100376.09;;;20.09;100.00
60345;BME280;46188;52.324;8.032;2022-08-20T05:00:47;100379.63;;;20.10;100.00
60345;BME280;46188;52.324;8.032;2022-08-20T05:03:14;100384.19;;;20.06;100.00
60345;BME280;46188;52.324;8.032;2022-08-20T05:05:39;100390.47;;;20.05;100.00
60345;BME280;46188;52.324;8.032;2022-08-20T05:08:05;100390.41;;;20.07;100.00
60345;BME280;46188;52.324;8.032;2022-08-20T05:10:31;100399.31;;;20.07;100.00
60345;BME280;46188;52.324;8.032;2022-08-20T05:12:56;100390.41;;;20.07;100.00
60345;BME280;46188;52.324;8.032;2022-08-20T05:15:22;100398.44;;;20.07;100.00
60345;BME280;46188;52.324;8.032;2022-08-20T05:17:57;100399.38;;;20.06;100.00
60345;BME280;46188;52.324;8.032;2022-08-20T05:20:28;100394.13;;;20.03;100.00
60345;BME280;46188;52.324;8.032;2022-08-20T05:22:58;100397.66;;;20.03;100.00
60345;BME280;46188;52.324;8.032;2022-08-20T05:25:26;100405.72;;;20.02;100.00
60345;BME280;46188;52.324;8.032;2022-08-20T05:27:56;100403.97;;;20.01;100.00
60345;BME280;46188;52.324;8.032;2022-08-20T05:30:25;100411.09;;;20.02;100.00
60345;BME280;46188;52.324;8.032;2022-08-20T05:32:52;100411.09;;;20.02;100.00
60345;BME280;46188;52.324;8.032;2022-08-20T05:35:17;100410.25;;;20.00;100.00
60345;BME280;46188;52.324;8.032;2022-08-20T05:37:43;100406.63;;;20.01;100.00
60345;BME280;46188;52.324;8.032;2022-08-20T05:40:11;100408.38;;;20.03;100.00
60345;BME280;46188;52.324;8.032;2022-08-20T05:42:38;100405.69;;;20.03;100.00
60345;BME280;46188;52.324;8.032;2022-08-20T05:45:04;100411.03;;;20.03;100.00
60345;BME280;46188;52.324;8.032;2022-08-20T05:47:31;100411.00;;;20.05;100.00
60345;BME280;46188;52.324;8.032;2022-08-20T05:49:56;100415.44;;;20.06;100.00
60345;BME280;46188;52.324;8.032;2022-08-20T05:52:22;100417.09;;;20.10;100.00
60345;BME280;46188;52.324;8.032;2022-08-20T05:54:47;100409.97;;;20.09;100.00
60345;BME280;46188;52.324;8.032;2022-08-20T05:57:16;100421.53;;;20.11;100.00
60345;BME280;46188;52.324;8.032;2022-08-20T05:59:43;100411.75;;;20.10;100.00
60345;BME280;46188;52.324;8.032;2022-08-20T06:02:09;100412.66;;;20.09;100.00
60345;BME280;46188;52.324;8.032;2022-08-20T06:04:54;100409.78;;;20.15;100.00
60345;BME280;46188;52.324;8.032;2022-08-20T06:07:20;100412.44;;;20.17;100.00
60345;BME280;46188;52.324;8.032;2022-08-20T06:09:47;100414.19;;;20.18;100.00
60345;BME280;46188;52.324;8.032;2022-08-20T06:12:13;100402.59;;;20.17;100.00
60345;BME280;46188;52.324;8.032;2022-08-20T06:14:38;100413.28;;;20.17;100.00
60345;BME280;46188;52.324;8.032;2022-08-20T06:17:06;100409.66;;;20.20;100.00
60345;BME280;46188;52.324;8.032;2022-08-20T06:19:33;100410.50;;;20.22;100.00
60345;BME280;46188;52.324;8.032;2022-08-20T06:21:59;100412.34;;;20.20;100.00
60345;BME280;46188;52.324;8.032;2022-08-20T06:24:25;100417.56;;;20.24;100.00
60345;BME280;46188;52.324;8.032;2022-08-20T06:26:58;100415.66;;;20.28;100.00
60345;BME280;46188;52.324;8.032;2022-08-20T06:29:25;100410.38;;;20.26;100.00
60345;BME280;46188;52.324;8.032;2022-08-20T06:31:51;100412.94;;;20.30;100.00
60345;BME280;46188;52.324;8.032;2022-08-20T06:34:17;100412.00;;;20.31;100.00
60345;BME280;46188;52.324;8.032;2022-08-20T06:36:43;100418.31;;;20.30;100.00
60345;BME280;46188;52.324;8.032;2022-08-20T06:39:14;100412.94;;;20.30;100.00
60345;BME280;46188;52.324;8.032;2022-08-20T06:41:39;100411.28;;;20.25;100.00
60345;BME280;46188;52.324;8.032;2022-08-20T06:44:05;100396.16;;;20.24;100.00
60345;BME280;46188;52.324;8.032;2022-08-20T06:46:36;100412.25;;;20.23;100.00
60345;BME280;46188;52.324;8.032;2022-08-20T06:49:03;100415.81;;;20.23;100.00
60345;BME280;46188;52.324;8.032;2022-08-20T06:51:30;100408.63;;;20.24;100.00
60345;BME280;46188;52.324;8.032;2022-08-20T06:53:56;100419.25;;;20.27;100.00
60345;BME280;46188;52.324;8.032;2022-08-20T06:56:21;100411.09;;;20.32;100.00
60345;BME280;46188;52.324;8.032;2022-08-20T06:58:47;100416.28;;;20.38;100.00
60345;BME280;46188;52.324;8.032;2022-08-20T07:01:13;100416.31;;;20.36;100.00
60345;BME280;46188;52.324;8.032;2022-08-20T07:03:41;100417.31;;;20.32;100.00
60345;BME280;46188;52.324;8.032;2022-08-20T07:06:07;100427.16;;;20.32;100.00
60345;BME280;46188;52.324;8.032;2022-08-20T07:08:33;100425.56;;;20.26;100.00
60345;BME280;46188;52.324;8.032;2022-08-20T07:11:00;100429.09;;;20.26;100.00
60345;BME280;46188;52.324;8.032;2022-08-20T07:13:26;100423.75;;;20.26;100.00
60345;BME280;46188;52.324;8.032;2022-08-20T07:15:53;100433.72;;;20.21;100.00
60345;BME280;46188;52.324;8.032;2022-08-20T07:18:19;100431.13;;;20.18;100.00
60345;BME280;46188;52.324;8.032;2022-08-20T07:20:45;100433.03;;;20.15;100.00
60345;BME280;46188;52.324;8.032;2022-08-20T07:23:10;100436.47;;;20.18;100.00
60345;BME280;46188;52.324;8.032;2022-08-20T07:25:38;100442.56;;;20.23;100.00
60345;BME280;46188;52.324;8.032;2022-08-20T07:28:07;100445.97;;;20.28;100.00
60345;BME280;46188;52.324;8.032;2022-08-20T07:30:34;100442.09;;;20.39;100.00
60345;BME280;46188;52.324;8.032;2022-08-20T07:33:19;100441.78;;;21.86;100.00
60345;BME280;46188;52.324;8.032;2022-08-20T07:35:44;100442.47;;;22.17;93.00
60345;BME280;46188;52.324;8.032;2022-08-20T07:38:20;100442.22;;;21.74;95.33
60345;BME280;46188;52.324;8.032;2022-08-20T07:40:53;100440.69;;;21.40;97.41
60345;BME280;46188;52.324;8.032;2022-08-20T07:43:19;100453.03;;;21.19;99.10
60345;BME280;46188;52.324;8.032;2022-08-20T07:45:49;100452.59;;;21.05;98.82
60345;BME280;46188;52.324;8.032;2022-08-20T07:48:15;100453.00;;;20.92;100.00
60345;BME280;46188;52.324;8.032;2022-08-20T07:50:41;100449.19;;;20.99;100.00
60345;BME280;46188;52.324;8.032;2022-08-20T07:53:07;100456.94;;;21.35;100.00
60345;BME280;46188;52.324;8.032;2022-08-20T07:55:33;100449.63;;;25.28;79.43
60345;BME280;46188;52.324;8.032;2022-08-20T07:58:06;100446.00;;;27.12;72.03
60345;BME280;46188;52.324;8.032;2022-08-20T08:00:32;100452.16;;;29.58;60.21
60345;BME280;46188;52.324;8.032;2022-08-20T08:02:58;100448.53;;;29.98;58.11
60345;BME280;46188;52.324;8.032;2022-08-20T08:05:24;100448.28;;;28.66;59.39
60345;BME280;46188;52.324;8.032;2022-08-20T08:07:50;100447.09;;;27.84;62.41
60345;BME280;46188;52.324;8.032;2022-08-20T08:10:19;100447.19;;;27.22;63.49
60345;BME280;46188;52.324;8.032;2022-08-20T08:12:49;100452.53;;;25.93;68.02
60345;BME280;46188;52.324;8.032;2022-08-20T08:15:19;100452.53;;;25.04;71.77
60345;BME280;46188;52.324;8.032;2022-08-20T08:17:47;100458.03;;;24.45;75.57
60345;BME280;46188;52.324;8.032;2022-08-20T08:20:15;100461.72;;;24.05;76.62
60345;BME280;46188;52.324;8.032;2022-08-20T08:22:40;100466.66;;;23.73;77.40
60345;BME280;46188;52.324;8.032;2022-08-20T08:25:09;100460.59;;;23.68;79.41
60345;BME280;46188;52.324;8.032;2022-08-20T08:27:35;100472.22;;;23.48;79.71
60345;BME280;46188;52.324;8.032;2022-08-20T08:30:02;100472.09;;;23.30;81.89
60345;BME280;46188;52.324;8.032;2022-08-20T08:32:28;100469.88;;;23.18;82.63
60345;BME280;46188;52.324;8.032;2022-08-20T08:34:55;100469.31;;;23.10;83.65
60345;BME280;46188;52.324;8.032;2022-08-20T08:37:21;100476.69;;;23.04;84.41
60345;BME280;46188;52.324;8.032;2022-08-20T08:39:46;100478.91;;;22.93;83.71
60345;BME280;46188;52.324;8.032;2022-08-20T08:42:32;100485.97;;;22.74;85.41
60345;BME280;46188;52.324;8.032;2022-08-20T08:44:58;100490.59;;;22.46;86.03
60345;BME280;46188;52.324;8.032;2022-08-20T08:47:30;100493.19;;;22.24;86.36
60345;BME280;46188;52.324;8.032;2022-08-20T08:49:57;100492.72;;;22.13;85.73
60345;BME280;46188;52.324;8.032;2022-08-20T08:52:23;100500.81;;;22.11;87.12
60345;BME280;46188;52.324;8.032;2022-08-20T08:54:56;100507.47;;;22.01;86.70
60345;BME280;46188;52.324;8.032;2022-08-20T08:57:23;100508.44;;;21.99;87.35
60345;BME280;46188;52.324;8.032;2022-08-20T09:00:00;100503.06;;;21.99;88.58
60345;BME280;46188;52.324;8.032;2022-08-20T09:02:26;100514.91;;;21.93;88.80
60345;BME280;46188;52.324;8.032;2022-08-20T09:04:56;100506.47;;;21.79;90.31
60345;BME280;46188;52.324;8.032;2022-08-20T09:07:25;100513.19;;;21.65;88.66
60345;BME280;46188;52.324;8.032;2022-08-20T09:09:52;100511.75;;;21.55;90.35
60345;BME280;46188;52.324;8.032;2022-08-20T09:12:22;100512.88;;;21.46;90.45
60345;BME280;46188;52.324;8.032;2022-08-20T09:14:50;100512.16;;;21.41;91.12
60345;BME280;46188;52.324;8.032;2022-08-20T09:17:19;100508.75;;;21.36;90.34
60345;BME280;46188;52.324;8.032;2022-08-20T09:19:45;100512.47;;;21.32;91.30
60345;BME280;46188;52.324;8.032;2022-08-20T09:22:13;100511.72;;;21.82;94.83
60345;BME280;46188;52.324;8.032;2022-08-20T09:24:39;100506.22;;;23.71;85.42
60345;BME280;46188;52.324;8.032;2022-08-20T09:27:05;100509.03;;;25.26;79.83
60345;BME280;46188;52.324;8.032;2022-08-20T09:29:30;100509.22;;;26.61;74.03
60345;BME280;46188;52.324;8.032;2022-08-20T09:32:17;100502.44;;;27.50;68.15
60345;BME280;46188;52.324;8.032;2022-08-20T09:34:46;100503.47;;;27.47;64.62
60345;BME280;46188;52.324;8.032;2022-08-20T09:37:12;100504.56;;;26.65;65.18
60345;BME280;46188;52.324;8.032;2022-08-20T09:39:38;100511.66;;;25.99;69.27
60345;BME280;46188;52.324;8.032;2022-08-20T09:44:31;100514.59;;;24.85;71.22
60345;BME280;46188;52.324;8.032;2022-08-20T09:46:57;100510.44;;;26.22;69.10
60345;BME280;46188;52.324;8.032;2022-08-20T09:49:22;100507.00;;;27.33;66.64
60345;BME280;46188;52.324;8.032;2022-08-20T09:51:48;100507.06;;;28.08;62.53
60345;BME280;46188;52.324;8.032;2022-08-20T09:54:13;100502.25;;;28.85;59.86
60345;BME280;46188;52.324;8.032;2022-08-20T09:56:39;100499.84;;;29.50;59.06
60345;BME280;46188;52.324;8.032;2022-08-20T09:59:04;100500.13;;;29.85;55.15
60345;BME280;46188;52.324;8.032;2022-08-20T10:01:30;100514.72;;;29.97;54.14
60345;BME280;46188;52.324;8.032;2022-08-20T10:03:55;100506.38;;;30.26;52.57
60345;BME280;46188;52.324;8.032;2022-08-20T10:06:20;100503.91;;;29.42;53.57
60345;BME280;46188;52.324;8.032;2022-08-20T10:08:47;100511.84;;;28.62;56.52
60345;BME280;46188;52.324;8.032;2022-08-20T10:11:13;100511.53;;;28.52;57.29
60345;BME280;46188;52.324;8.032;2022-08-20T10:13:38;100510.34;;;29.41;53.55
60345;BME280;46188;52.324;8.032;2022-08-20T10:16:04;100516.59;;;30.09;53.70
60345;BME280;46188;52.324;8.032;2022-08-20T10:18:29;100515.09;;;30.44;51.75
60345;BME280;46188;52.324;8.032;2022-08-20T10:20:55;100528.66;;;30.31;50.60
60345;BME280;46188;52.324;8.032;2022-08-20T10:23:20;100522.00;;;29.29;53.51
60345;BME280;46188;52.324;8.032;2022-08-20T10:25:46;100520.94;;;28.47;54.60
60345;BME280;46188;52.324;8.032;2022-08-20T10:28:11;100517.66;;;28.27;53.20
60345;BME280;46188;52.324;8.032;2022-08-20T10:30:37;100515.59;;;28.02;52.81
60345;BME280;46188;52.324;8.032;2022-08-20T10:33:02;100514.13;;;27.50;54.89
60345;BME280;46188;52.324;8.032;2022-08-20T10:35:28;100519.84;;;26.82;55.19
60345;BME280;46188;52.324;8.032;2022-08-20T10:37:54;100515.72;;;26.91;55.18
60345;BME280;46188;52.324;8.032;2022-08-20T10:40:19;100513.84;;;27.71;52.81
60345;BME280;46188;52.324;8.032;2022-08-20T10:42:45;100520.22;;;28.00;51.89
60345;BME280;46188;52.324;8.032;2022-08-20T10:45:12;100513.75;;;27.87;54.22
60345;BME280;46188;52.324;8.032;2022-08-20T10:47:39;100518.03;;;27.91;53.88
60345;BME280;46188;52.324;8.032;2022-08-20T10:50:08;100520.63;;;27.48;54.80
60345;BME280;46188;52.324;8.032;2022-08-20T10:52:33;100517.41;;;26.93;55.15
60345;BME280;46188;52.324;8.032;2022-08-20T10:54:59;100520.13;;;26.60;55.60
60345;BME280;46188;52.324;8.032;2022-08-20T10:57:27;100516.03;;;27.94;50.78
60345;BME280;46188;52.324;8.032;2022-08-20T10:59:56;100512.41;;;29.51;48.18
60345;BME280;46188;52.324;8.032;2022-08-20T11:02:23;100512.66;;;30.00;46.24
60345;BME280;46188;52.324;8.032;2022-08-20T11:04:49;100514.06;;;29.26;48.79
60345;BME280;46188;52.324;8.032;2022-08-20T11:07:25;100517.72;;;27.81;51.09
60345;BME280;46188;52.324;8.032;2022-08-20T11:09:51;100510.75;;;26.99;53.46
60345;BME280;46188;52.324;8.032;2022-08-20T11:12:18;100511.00;;;27.26;54.04
60345;BME280;46188;52.324;8.032;2022-08-20T11:14:45;100512.50;;;27.78;52.29
60345;BME280;46188;52.324;8.032;2022-08-20T11:17:11;100508.63;;;28.12;50.83
60345;BME280;46188;52.324;8.032;2022-08-20T11:19:41;100511.63;;;28.08;50.75
60345;BME280;46188;52.324;8.032;2022-08-20T11:22:08;100515.19;;;28.08;51.21
60345;BME280;46188;52.324;8.032;2022-08-20T11:24:34;100512.63;;;27.91;51.29
60345;BME280;46188;52.324;8.032;2022-08-20T11:27:00;100500.41;;;27.84;51.96
60345;BME280;46188;52.324;8.032;2022-08-20T11:29:25;100506.13;;;27.79;52.56
60345;BME280;46188;52.324;8.032;2022-08-20T11:31:51;100508.78;;;27.65;52.54
60345;BME280;46188;52.324;8.032;2022-08-20T11:34:16;100513.03;;;27.69;53.00
60345;BME280;46188;52.324;8.032;2022-08-20T11:36:43;100513.78;;;27.56;52.89
60345;BME280;46188;52.324;8.032;2022-08-20T11:39:08;100522.16;;;27.52;53.06
60345;BME280;46188;52.324;8.032;2022-08-20T11:41:34;100515.53;;;27.57;53.43
60345;BME280;46188;52.324;8.032;2022-08-20T11:44:01;100526.38;;;27.57;53.27
60345;BME280;46188;52.324;8.032;2022-08-20T11:46:26;100520.09;;;27.41;53.21
60345;BME280;46188;52.324;8.032;2022-08-20T11:48:51;100524.13;;;27.34;53.13
60345;BME280;46188;52.324;8.032;2022-08-20T11:51:17;100508.03;;;27.47;52.95
60345;BME280;46188;52.324;8.032;2022-08-20T11:53:42;100520.78;;;27.29;53.33
60345;BME280;46188;52.324;8.032;2022-08-20T11:56:08;100522.63;;;26.96;54.43
60345;BME280;46188;52.324;8.032;2022-08-20T11:58:34;100520.28;;;26.90;53.25
60345;BME280;46188;52.324;8.032;2022-08-20T12:01:00;100514.25;;;26.85;53.35
60345;BME280;46188;52.324;8.032;2022-08-20T12:03:26;100513.66;;;26.80;52.94
60345;BME280;46188;52.324;8.032;2022-08-20T12:05:51;100518.06;;;26.81;53.58
60345;BME280;46188;52.324;8.032;2022-08-20T12:08:18;100515.50;;;26.62;53.85
60345;BME280;46188;52.324;8.032;2022-08-20T12:10:44;100511.97;;;26.44;53.87
60345;BME280;46188;52.324;8.032;2022-08-20T12:13:09;100511.69;;;26.32;54.53
60345;BME280;46188;52.324;8.032;2022-08-20T12:15:35;100515.09;;;26.36;53.82
60345;BME280;46188;52.324;8.032;2022-08-20T12:18:06;100509.13;;;26.13;53.98
60345;BME280;46188;52.324;8.032;2022-08-20T12:20:32;100516.28;;;25.97;55.39
60345;BME280;46188;52.324;8.032;2022-08-20T12:22:57;100519.69;;;26.01;55.24
60345;BME280;46188;52.324;8.032;2022-08-20T12:25:23;100515.84;;;25.70;54.21
60345;BME280;46188;52.324;8.032;2022-08-20T12:27:49;100514.56;;;25.59;54.97
60345;BME280;46188;52.324;8.032;2022-08-20T12:30:18;100514.31;;;25.47;55.03
60345;BME280;46188;52.324;8.032;2022-08-20T12:32:44;100516.66;;;25.35;55.28
60345;BME280;46188;52.324;8.032;2022-08-20T12:35:11;100515.56;;;25.20;55.67
60345;BME280;46188;52.324;8.032;2022-08-20T12:37:37;100515.47;;;25.04;55.15
60345;BME280;46188;52.324;8.032;2022-08-20T12:40:06;100521.09;;;25.00;56.83
60345;BME280;46188;52.324;8.032;2022-08-20T12:42:32;100519.63;;;24.93;56.55
60345;BME280;46188;52.324;8.032;2022-08-20T12:44:58;100523.50;;;25.06;57.14
60345;BME280;46188;52.324;8.032;2022-08-20T12:47:33;100524.28;;;25.08;57.19
60345;BME280;46188;52.324;8.032;2022-08-20T12:50:02;100522.44;;;25.09;57.85
60345;BME280;46188;52.324;8.032;2022-08-20T12:52:29;100515.25;;;24.90;56.74
60345;BME280;46188;52.324;8.032;2022-08-20T12:54:56;100516.72;;;24.78;57.41
60345;BME280;46188;52.324;8.032;2022-08-20T12:57:31;100518.03;;;24.89;57.78
60345;BME280;46188;52.324;8.032;2022-08-20T13:00:00;100523.63;;;25.03;57.10